Strona główna
METAR-TAF:

METAR-TAF

Lotnisko :

Gran Canaria, Hiszpania

Port lotniczy Gran Canaria

Szerokość geograficzna: 27-56N, Długość geograficzna: 015-23W, wysokość: 23 m

Aktualna obserwacja pogody

Raport powstał 36 minut temu, godzina 03:00 UTC
Wiatr 11 kt od północ
Temperatura 17°C
Wilgotność 77%
Ciśnienie 1021 hPa
Widzialność 10 km lub więcej
Mało chmury na wysokości 3000 ft
Przerywane chmury na wysokości 4500 ft

METAR: GCLP 180300Z 35011KT 9999 FEW030 BKN045 17/13 Q1021 NOSIG

czas: 03:36 (03:36 UTC)

Prognoza

Raport powstał 1 godzina i 36 minut temu, godzina 02:00 UTC
Prognoza ważna od 18 godzina 03 UTC do 19 godzina 03 UTC
Wiatr 15 kt od północ
Widzialność 10 km lub więcej
Rozproszone chmury na wysokości 3000 ft

TAF: GCLP 180200Z 1803/1903 35015KT 9999 SCT030 TX21/1814Z TN16/1806Z

Obserwacja i prognoza pogody dla ponad 4000 lotnisk (raport METAR i TAF).

Dostępne stacje oznaczono żółtymi i czerwonymi punktami na mapie.

Najedź kursorem aby zobaczyć nazwę stacji.

Kliknij aby zobaczyć obserwacje i prognozy pogody.

Aby zmienić mapę: kliknij na zielony przycisk z czarnym krzyżykiem, aby powiększyć; na zielony przycisk z myślnikiem, aby pomniejszyć; na zielone strzałki, aby przejść do map sąsiednich.


METAR-TAF: